Time;durP1;ratioP1;P1;durP2;ratioP2;P2;SDS_P1;SDS_P2;PMS_P1;PMS_P2;Temp;Humidity;BMP_temperature;BMP_pressure;BME280_temperature;BME280_humidity;BME280_pressure;Samples;Min_cycle;Max_cycle;Signal;HPM_P1;HPM_P2
2022/09/25 00:01:23;;;;;;;9.05;7.00;;;13.60;99.90;;;16.68;60.54;97227.97;5029889;28;20061;-49
2022/09/25 00:03:51;;;;;;;11.02;6.90;;;13.50;99.90;;;16.65;60.43;97234.59;5028775;28;20037;-46
2022/09/25 00:06:23;;;;;;;9.52;6.75;;;13.50;99.90;;;16.61;60.32;97236.03;5028231;28;20055;-47
2022/09/25 00:08:52;;;;;;;8.73;7.00;;;13.40;99.90;;;16.62;60.26;97231.50;5027358;28;20053;-47
2022/09/25 00:11:27;;;;;;;9.50;6.53;;;13.50;99.90;;;16.63;60.43;97227.78;5028344;28;20052;-46
2022/09/25 00:13:57;;;;;;;10.40;6.15;;;13.50;99.90;;;16.58;60.56;97228.41;5027213;28;20352;-44
2022/09/25 00:16:29;;;;;;;9.65;6.07;;;13.40;99.90;;;16.59;60.56;97223.84;5027039;28;20049;-46
2022/09/25 00:21:50;;;;;;;8.65;6.80;;;13.50;99.90;;;16.65;60.39;97231.06;5028852;28;20063;-44
2022/09/25 00:24:19;;;;;;;9.93;6.38;;;13.50;99.90;;;16.68;60.13;97220.72;5025880;28;20048;-44
2022/09/25 00:26:46;;;;;;;7.15;5.97;;;13.60;99.90;;;16.70;60.22;97215.16;5028424;28;20057;-49
2022/09/25 00:29:18;;;;;;;8.10;5.80;;;13.60;99.90;;;16.72;60.40;97203.16;5028024;28;20053;-44
2022/09/25 00:31:45;;;;;;;7.57;6.20;;;13.60;99.90;;;16.76;60.01;97206.25;5028572;28;20243;-44
2022/09/25 00:34:13;;;;;;;7.38;5.32;;;13.70;99.90;;;16.75;60.15;97204.59;5028731;28;20049;-44
2022/09/25 00:36:41;;;;;;;7.15;5.50;;;13.60;99.90;;;16.74;59.99;97201.06;5027442;28;20053;-47
2022/09/25 00:39:09;;;;;;;9.18;6.43;;;13.60;99.90;;;16.77;60.03;97202.53;5027459;28;20056;-48
2022/09/25 00:41:37;;;;;;;13.57;7.05;;;13.70;99.90;;;16.80;60.08;97199.41;5027538;28;20074;-47
2022/09/25 00:44:43;;;;;;;7.82;5.35;;;13.70;99.90;;;16.81;60.00;97203.75;5026843;28;20275;-48
2022/09/25 00:47:17;;;;;;;6.55;5.38;;;13.70;99.90;;;16.81;59.92;97200.22;5028333;28;20251;-50
2022/09/25 00:49:46;;;;;;;7.00;4.15;;;13.60;99.90;;;16.77;60.05;97194.47;5027926;28;20057;-49
2022/09/25 00:52:14;;;;;;;8.25;5.30;;;13.60;99.90;;;16.79;59.94;97195.06;5027223;28;20053;-48
2022/09/25 00:54:57;;;;;;;6.97;5.45;;;13.60;99.90;;;16.79;59.92;97188.84;5027427;28;20050;-45
2022/09/25 00:57:30;;;;;;;6.82;4.53;;;13.60;99.90;;;16.76;59.81;97189.28;5028516;28;20053;-45
2022/09/25 01:00:06;;;;;;;7.38;4.70;;;13.60;99.90;;;16.76;59.82;97182.06;5025877;28;20056;-47
2022/09/25 01:02:41;;;;;;;7.80;4.72;;;13.60;99.90;;;16.75;59.69;97185.78;5026199;28;20049;-47
2022/09/25 01:05:17;;;;;;;7.25;4.75;;;13.60;99.90;;;16.71;59.96;97198.81;5025692;28;20065;-46
2022/09/25 01:07:47;;;;;;;5.95;4.75;;;13.60;99.90;;;16.71;60.09;97189.91;5026966;28;20075;-46
2022/09/25 01:10:17;;;;;;;6.10;4.53;;;13.60;99.90;;;16.72;60.00;97186.19;5026359;28;20060;-45
2022/09/25 01:12:47;;;;;;;4.82;3.95;;;13.60;99.90;;;16.69;59.92;97179.41;5026715;28;20053;-45
2022/09/25 01:15:22;;;;;;;5.00;4.15;;;13.50;99.90;;;16.69;59.80;97182.09;5026707;28;20037;-46
2022/09/25 01:18:25;;;;;;;6.03;4.47;;;13.50;99.90;;;16.67;59.90;97181.47;5027428;28;20247;-45
2022/09/25 01:21:12;;;;;;;6.32;5.05;;;13.50;99.90;;;16.64;59.68;97176.50;5028593;28;20053;-48
2022/09/25 01:24:05;;;;;;;7.25;4.75;;;13.40;99.90;;;16.57;59.96;97178.38;5026739;28;20060;-49
2022/09/25 01:27:05;;;;;;;7.80;5.20;;;13.30;99.90;;;16.57;59.96;97188.31;5025991;28;20057;-47
2022/09/25 01:29:49;;;;;;;6.18;5.57;;;13.40;99.90;;;16.58;60.32;97190.78;5026914;28;20050;-46
2022/09/25 01:32:19;;;;;;;7.55;5.15;;;13.40;99.90;;;16.61;60.18;97190.34;5025579;28;20277;-47
2022/09/25 01:35:25;;;;;;;6.95;5.60;;;13.40;99.90;;;16.62;60.34;97193.88;5025283;28;20053;-45
2022/09/25 01:38:05;;;;;;;9.07;6.13;;;13.50;99.90;;;16.61;60.34;97192.22;5027190;28;20049;-46
2022/09/25 01:40:45;;;;;;;7.15;5.57;;;13.40;99.90;;;16.62;60.34;97199.25;5025513;28;20267;-46
2022/09/25 01:43:38;;;;;;;8.88;6.47;;;13.50;99.90;;;16.63;60.12;97203.59;5026033;28;20067;-44
2022/09/25 01:46:12;;;;;;;7.60;5.53;;;13.50;99.90;;;16.62;60.15;97194.69;5024948;28;20053;-47
2022/09/25 01:48:44;;;;;;;8.95;6.15;;;13.40;99.90;;;16.62;60.38;97189.34;5027626;28;20067;-45
2022/09/25 01:51:23;;;;;;;8.20;5.88;;;13.50;99.90;;;16.65;60.25;97190.75;5023898;28;20064;-47
2022/09/25 01:53:58;;;;;;;8.25;5.90;;;13.50;99.90;;;16.64;60.24;97184.56;5024871;28;20065;-43
2022/09/25 01:56:37;;;;;;;9.32;5.45;;;13.50;99.90;;;16.68;60.04;97190.34;5024042;28;20361;-46
2022/09/25 01:59:48;;;;;;;7.35;5.57;;;13.50;99.90;;;16.62;59.86;97185.81;5025309;28;20351;-45
2022/09/25 02:02:23;;;;;;;10.52;7.43;;;13.40;99.90;;;16.59;60.08;97183.56;5017006;28;20064;-45
2022/09/25 02:04:59;;;;;;;10.75;8.38;;;13.40;99.90;;;16.60;59.95;97186.03;5025645;28;20053;-45
2022/09/25 02:07:44;;;;;;;13.10;8.57;;;13.30;99.90;;;16.59;60.05;97186.22;5024043;28;20053;-44
2022/09/25 02:10:30;;;;;;;14.40;9.68;;;13.40;99.90;;;16.59;59.95;97184.38;5025393;28;20053;-46
2022/09/25 02:13:09;;;;;;;11.05;8.68;;;13.40;99.90;;;16.57;59.84;97180.25;5026688;28;20061;-45
2022/09/25 02:15:44;;;;;;;10.82;8.65;;;13.40;99.90;;;16.52;60.14;97189.78;5024899;28;20113;-47
2022/09/25 02:21:37;;;;;;;9.55;7.22;;;13.40;99.90;;;16.50;60.18;97178.41;5028255;28;20256;-47
2022/09/25 02:24:29;;;;;;;10.90;8.02;;;13.40;99.90;;;16.44;60.41;97178.41;5030222;28;20059;-45
2022/09/25 02:26:57;;;;;;;10.32;8.05;;;13.30;99.90;;;16.47;60.37;97189.56;5030208;28;20334;-46
2022/09/25 02:29:25;;;;;;;12.00;8.05;;;13.30;99.90;;;16.51;60.53;97180.03;5030702;28;20053;-47
2022/09/25 02:32:07;;;;;;;13.07;8.60;;;13.30;99.90;;;16.56;60.33;97179.44;5028296;28;20057;-46
2022/09/25 02:34:36;;;;;;;9.82;6.75;;;13.40;99.90;;;16.52;60.21;97183.56;5029581;28;20344;-47
2022/09/25 02:37:13;;;;;;;11.38;7.72;;;13.30;99.90;;;16.48;60.34;97177.78;5030686;28;20053;-45
2022/09/25 02:39:44;;;;;;;13.77;9.90;;;13.30;99.90;;;16.46;60.37;97165.59;5029259;28;20247;-44
2022/09/25 02:42:48;;;;;;;14.02;9.32;;;13.30;99.90;;;16.51;60.41;97174.66;5030111;28;20056;-45
2022/09/25 02:45:56;;;;;;;12.95;9.93;;;13.30;99.90;;;16.57;59.83;97178.38;5029321;28;20053;-45
2022/09/25 02:48:40;;;;;;;10.85;8.82;;;13.40;99.90;;;16.56;59.89;97167.88;5028313;28;20648;-44
2022/09/25 02:52:02;;;;;;;10.52;8.30;;;13.40;99.90;;;16.57;60.17;97166.81;5028401;28;20045;-46
2022/09/25 02:54:52;;;;;;;9.73;7.78;;;13.40;99.90;;;16.54;60.17;97163.50;5028530;28;20571;-46
2022/09/25 02:57:51;;;;;;;10.18;7.78;;;13.30;99.90;;;16.56;60.29;97168.69;5016122;28;20069;-49
2022/09/25 03:00:22;;;;;;;9.23;7.80;;;13.40;99.90;;;16.58;60.04;97171.16;5029047;28;20059;-44
2022/09/25 03:02:58;;;;;;;10.32;8.13;;;13.40;99.90;;;16.58;60.03;97174.66;5028267;28;20367;-47
2022/09/25 03:05:26;;;;;;;11.30;8.07;;;13.50;99.90;;;16.59;60.04;97162.06;5028272;28;20699;-50
2022/09/25 03:10:45;;;;;;;10.25;7.95;;;13.40;99.90;;;16.54;60.02;97168.06;5028882;28;20053;-44
2022/09/25 03:13:20;;;;;;;9.85;7.78;;;13.40;99.90;;;16.53;60.07;97163.72;5028312;28;20057;-45
2022/09/25 03:15:57;;;;;;;10.05;7.53;;;13.30;99.90;;;16.51;60.24;97163.91;5029108;28;20041;-44
2022/09/25 03:18:27;;;;;;;11.50;8.38;;;13.40;99.90;;;16.48;60.05;97163.53;5029698;28;20052;-48
2022/09/25 03:20:55;;;;;;;11.10;8.30;;;13.30;99.90;;;16.48;60.02;97163.53;5028041;28;20057;-44
2022/09/25 03:23:23;;;;;;;12.13;8.48;;;13.30;99.90;;;16.45;60.31;97163.94;5026734;28;20386;-44
2022/09/25 03:25:54;;;;;;;10.95;8.55;;;13.30;99.90;;;16.43;60.62;97166.84;5025732;28;20059;-46
2022/09/25 03:28:23;;;;;;;11.38;7.88;;;13.30;99.90;;;16.39;60.55;97172.84;5029221;28;20075;-47
2022/09/25 03:31:09;;;;;;;11.88;8.80;;;13.20;99.90;;;16.38;60.39;97173.88;5028932;28;20340;-46
2022/09/25 03:33:40;;;;;;;11.20;9.00;;;13.20;99.90;;;16.41;60.29;97173.47;5026295;28;20240;-45
2022/09/25 03:36:12;;;;;;;10.25;8.45;;;13.30;99.90;;;16.44;60.61;97173.88;5028492;28;20068;-44
2022/09/25 03:38:42;;;;;;;11.73;8.27;;;13.30;99.90;;;16.44;60.34;97170.34;5029515;28;20302;-45
2022/09/25 03:41:15;;;;;;;13.48;9.70;;;13.30;99.90;;;16.46;60.63;97166.44;5027762;28;20045;-48
2022/09/25 03:43:44;;;;;;;;;;;13.30;99.90;;;16.56;60.20;97175.94;5027848;28;20057;-46
2022/09/25 03:46:13;;;;;;;11.55;8.25;;;13.30;99.90;;;16.53;60.41;97177.16;5027937;28;19944;-48
2022/09/25 03:48:41;;;;;;;12.88;9.90;;;13.30;99.90;;;16.44;60.62;97176.56;5029314;28;20049;-47
2022/09/25 03:51:10;;;;;;;13.80;9.07;;;13.20;99.90;;;16.41;60.78;97173.47;5028540;28;20397;-45
2022/09/25 03:53:38;;;;;;;12.52;8.70;;;13.30;99.90;;;16.37;60.94;97173.06;5028038;28;20050;-47
2022/09/25 03:56:12;;;;;;;12.77;8.93;;;13.20;99.90;;;16.38;60.84;97169.34;5028902;28;20045;-47
2022/09/25 03:58:40;;;;;;;14.68;9.15;;;13.20;99.90;;;16.35;60.71;97172.44;5028409;28;20057;-48
2022/09/25 04:01:09;;;;;;;10.73;8.90;;;13.20;99.90;;;16.33;60.73;97169.97;5028083;28;20220;-47
2022/09/25 04:03:38;;;;;;;14.15;9.68;;;13.10;99.90;;;16.28;60.75;97164.38;5027712;28;20061;-46
2022/09/25 04:06:07;;;;;;;15.70;9.90;;;13.10;99.90;;;16.29;60.84;97163.34;5028149;28;20053;-50
2022/09/25 04:08:36;;;;;;;11.82;9.60;;;13.10;99.90;;;16.30;60.82;97165.03;5028157;28;20067;-48
2022/09/25 04:11:04;;;;;;;13.88;9.43;;;13.20;99.90;;;16.30;61.07;97165.03;5028332;28;20063;-48
2022/09/25 04:13:40;;;;;;;16.13;10.25;;;13.10;99.90;;;16.29;61.05;97158.00;5028269;28;20061;-46
2022/09/25 04:16:08;;;;;;;12.23;9.68;;;13.10;99.90;;;16.26;60.81;97160.25;5028477;28;20775;-49
2022/09/25 04:18:37;;;;;;;14.65;9.80;;;13.10;99.90;;;16.23;60.95;97161.50;5028020;28;20053;-47
2022/09/25 04:21:08;;;;;;;14.02;9.98;;;13.00;99.90;;;16.25;61.03;97161.31;5028956;28;20067;-49
2022/09/25 04:23:37;;;;;;;14.25;9.15;;;13.10;99.90;;;16.25;61.28;97164.00;5026841;28;20051;-47
2022/09/25 04:26:06;;;;;;;13.38;9.90;;;13.10;99.90;;;16.28;61.12;97164.38;5028476;28;20054;-47
2022/09/25 04:28:34;;;;;;;13.07;10.48;;;13.20;99.90;;;16.30;61.40;97165.03;5028515;28;20083;-47
2022/09/25 04:31:03;;;;;;;14.15;9.40;;;13.20;99.90;;;16.32;61.00;97164.78;5026051;28;20053;-47
2022/09/25 04:33:46;;;;;;;11.55;8.48;;;13.20;99.90;;;16.36;61.22;97171.38;5027329;28;20045;-44
2022/09/25 04:36:16;;;;;;;15.10;10.10;;;13.30;99.90;;;16.36;61.07;97160.66;5027403;28;20061;-44
2022/09/25 04:38:45;;;;;;;13.52;9.02;;;13.20;99.90;;;16.32;61.11;97171.00;5027700;28;20248;-45
2022/09/25 04:41:15;;;;;;;12.68;8.93;;;13.20;99.90;;;16.33;61.24;97166.47;5027663;28;20247;-44
2022/09/25 04:43:43;;;;;;;13.35;9.02;;;13.20;99.90;;;16.38;60.86;97168.50;5028138;28;20069;-46
2022/09/25 04:46:12;;;;;;;14.05;10.70;;;13.20;99.90;;;16.35;60.72;97167.06;5027131;28;20061;-48
2022/09/25 04:48:48;;;;;;;12.00;9.65;;;13.20;99.90;;;16.36;60.68;97173.25;5027953;28;20045;-45
2022/09/25 04:51:16;;;;;;;15.23;9.13;;;13.20;99.90;;;16.30;61.03;97167.72;5027039;28;20248;-44
2022/09/25 04:53:43;;;;;;;14.95;10.80;;;13.10;99.90;;;16.29;60.85;97171.41;5026804;28;20049;-46
2022/09/25 04:56:11;;;;;;;17.92;11.50;;;13.10;99.90;;;16.29;60.89;97170.59;5026982;28;20041;-47
2022/09/25 04:58:48;;;;;;;15.77;10.68;;;13.10;99.90;;;16.27;61.06;97172.66;5026562;28;20359;-45
2022/09/25 05:01:19;;;;;;;15.25;10.10;;;13.10;99.90;;;16.30;60.98;97169.53;5026243;28;20044;-45
2022/09/25 05:03:49;;;;;;;11.50;8.75;;;13.10;99.90;;;16.30;60.87;97167.72;5025835;28;20053;-44
2022/09/25 05:06:17;;;;;;;13.40;9.30;;;13.10;99.90;;;16.30;60.67;97173.09;5026385;28;20049;-44
2022/09/25 05:08:48;;;;;;;13.70;9.43;;;13.10;99.90;;;16.26;61.04;97166.44;5027244;28;20228;-46
2022/09/25 05:11:16;;;;;;;11.05;9.18;;;13.10;99.90;;;16.27;61.17;97167.28;5027414;28;20048;-46
2022/09/25 05:13:47;;;;;;;12.23;8.85;;;13.10;99.90;;;16.27;61.06;97162.75;5027572;28;20049;-46
2022/09/25 05:16:15;;;;;;;11.25;8.52;;;13.10;99.90;;;16.32;60.84;97171.00;5024823;28;20059;-45
2022/09/25 05:18:43;;;;;;;12.35;8.63;;;13.20;99.90;;;16.32;60.93;97165.63;5026891;28;20052;-48
2022/09/25 05:21:11;;;;;;;12.50;8.38;;;13.20;99.90;;;16.33;60.54;97171.81;5026315;28;20053;-46
2022/09/25 05:23:39;;;;;;;14.52;8.30;;;13.20;99.90;;;16.30;60.77;97169.53;5027803;28;20348;-44
2022/09/25 05:26:08;;;;;;;13.60;9.48;;;13.20;99.90;;;16.25;61.11;97170.19;5027912;28;20071;-46
2022/09/25 05:28:36;;;;;;;15.68;12.50;;;13.10;99.90;;;16.26;61.02;97163.75;5026214;28;20242;-48
2022/09/25 05:31:04;;;;;;;19.95;14.85;;;13.10;99.90;;;16.24;60.88;97165.84;5028169;28;20067;-45
2022/09/25 05:33:34;;;;;;;13.02;9.35;;;13.10;99.90;;;16.28;60.85;97166.25;5026908;28;20045;-47
2022/09/25 05:36:04;;;;;;;11.35;8.32;;;13.10;99.90;;;16.25;60.90;97170.19;5026508;28;20038;-45
2022/09/25 05:38:35;;;;;;;12.80;8.95;;;13.10;99.90;;;16.22;61.00;97159.84;5027795;28;20442;-46
2022/09/25 05:41:05;;;;;;;11.82;9.55;;;13.10;99.90;;;16.21;60.98;97155.53;5026196;28;20049;-45
2022/09/25 05:43:39;;;;;;;11.82;9.13;;;13.10;99.90;;;16.21;61.05;97165.44;5026324;28;20050;-47
2022/09/25 05:46:06;;;;;;;14.65;8.70;;;13.10;99.90;;;16.23;60.73;97163.38;5026899;28;20246;-50
2022/09/25 05:48:35;;;;;;;12.45;8.45;;;13.10;99.90;;;16.22;60.98;97169.78;5026541;28;20057;-47
2022/09/25 05:51:03;;;;;;;12.45;9.60;;;13.10;99.90;;;16.22;60.93;97169.78;5026989;28;20068;-50
2022/09/25 05:53:31;;;;;;;12.00;9.15;;;13.10;99.90;;;16.23;60.74;97171.44;5025241;28;20055;-49
2022/09/25 05:56:02;;;;;;;10.75;8.02;;;13.10;99.90;;;16.22;60.85;97170.59;5026380;28;20053;-46
2022/09/25 05:58:32;;;;;;;11.70;9.10;;;13.10;99.90;;;16.23;60.94;97171.44;5028018;28;20045;-48
2022/09/25 06:01:03;;;;;;;14.45;10.50;;;13.10;99.90;;;16.27;60.80;97167.28;5026926;28;20053;-46
2022/09/25 06:03:31;;;;;;;16.63;11.18;;;13.20;99.90;;;16.26;60.72;97168.31;5026984;28;20053;-46
2022/09/25 06:06:00;;;;;;;13.63;9.43;;;13.10;99.90;;;16.26;60.67;97171.00;5025856;28;20053;-45
2022/09/25 06:08:31;;;;;;;10.40;7.80;;;13.20;99.90;;;16.28;60.68;97171.63;5027301;28;20381;-45
2022/09/25 06:11:01;;;;;;;10.07;8.00;;;13.20;99.90;;;16.33;60.66;97171.81;5025285;28;20056;-47
2022/09/25 06:13:31;;;;;;;16.00;10.30;;;13.20;99.90;;;16.34;60.35;97168.94;5025863;28;20065;-48
2022/09/25 06:16:00;;;;;;;10.68;8.50;;;13.30;99.90;;;16.39;60.38;97180.91;5026296;28;20215;-45
2022/09/25 06:18:28;;;;;;;11.93;8.02;;;13.30;99.90;;;16.37;60.49;97174.94;5026494;28;20053;-46
2022/09/25 06:21:03;;;;;;;17.63;7.53;;;13.30;99.90;;;16.39;60.43;97176.34;5025552;28;20056;-46
2022/09/25 06:23:31;;;;;;;7.38;5.90;;;13.30;99.90;;;16.40;60.52;97185.22;5025296;28;20306;-48
2022/09/25 06:26:04;;;;;;;8.65;6.50;;;13.30;99.90;;;16.39;60.45;97180.91;5022788;28;20255;-46
2022/09/25 06:28:33;;;;;;;8.10;5.75;;;13.30;99.90;;;16.41;60.48;97181.53;5026327;28;20049;-46
2022/09/25 06:31:03;;;;;;;10.27;6.07;;;13.30;99.90;;;16.41;60.57;97173.47;5026610;28;20363;-46
2022/09/25 06:33:31;;;;;;;8.52;5.97;;;13.30;99.90;;;16.40;60.51;97175.34;5024711;28;20060;-49
2022/09/25 06:35:59;;;;;;;9.80;6.82;;;13.30;99.90;;;16.43;60.51;97176.78;5023940;28;20049;-47
2022/09/25 06:38:32;;;;;;;7.90;5.28;;;13.30;99.90;;;16.43;60.56;97174.09;5024989;28;20045;-49
2022/09/25 06:41:01;;;;;;;7.75;6.47;;;13.30;99.90;;;16.51;60.29;97184.59;5024603;28;20053;-47
2022/09/25 06:43:30;;;;;;;8.73;5.75;;;13.40;99.90;;;16.52;60.09;97183.56;5024252;28;20041;-45
2022/09/25 06:46:02;;;;;;;8.68;7.10;;;13.40;99.90;;;16.49;60.21;97187.50;5025924;28;20393;-47
2022/09/25 06:48:30;;;;;;;7.32;6.32;;;13.40;99.90;;;16.53;60.07;97179.84;5025167;28;20049;-49
2022/09/25 06:50:59;;;;;;;11.10;6.55;;;13.40;99.90;;;16.51;60.16;97180.03;5023758;28;20052;-48
2022/09/25 06:53:27;;;;;;;8.23;6.63;;;13.40;99.90;;;16.49;60.14;97182.13;5024344;28;20075;-45
2022/09/25 06:55:58;;;;;;;6.18;5.38;;;13.40;99.90;;;16.50;60.02;97182.97;5024188;28;20370;-46
2022/09/25 06:58:29;;;;;;;8.05;5.47;;;13.40;99.90;;;16.54;59.92;97186.88;5025269;28;20053;-46
2022/09/25 07:00:57;;;;;;;6.95;5.60;;;13.40;99.90;;;16.58;60.06;97192.66;5025246;28;20054;-46
2022/09/25 07:03:43;;;;;;;7.18;6.47;;;13.50;99.90;;;16.59;59.91;97187.06;5025281;28;20344;-48
2022/09/25 07:06:22;;;;;;;7.78;6.15;;;13.50;99.90;;;16.64;59.91;97186.44;5025202;28;20349;-45
2022/09/25 07:08:51;;;;;;;9.15;6.50;;;13.60;99.90;;;16.62;59.79;97180.44;5027628;28;20045;-48
2022/09/25 07:11:22;;;;;;;8.80;5.75;;;13.50;99.90;;;16.62;59.72;97191.19;5028716;28;20090;-45
2022/09/25 07:13:53;;;;;;;9.43;7.20;;;13.50;99.90;;;16.63;59.95;97192.84;5028621;28;20061;-47
2022/09/25 07:16:27;;;;;;;11.07;7.90;;;13.50;99.90;;;16.63;60.05;97190.16;5027868;28;20255;-48
2022/09/25 07:18:59;;;;;;;9.40;7.13;;;13.60;99.90;;;16.67;59.61;97192.22;5028394;28;20247;-49
2022/09/25 07:21:29;;;;;;;8.13;6.70;;;13.60;99.90;;;16.67;59.81;97188.69;5028998;28;20057;-44
2022/09/25 07:23:57;;;;;;;7.55;6.35;;;13.50;99.90;;;16.69;59.67;97192.00;5028247;28;20057;-49
2022/09/25 07:26:29;;;;;;;11.50;7.07;;;13.60;99.90;;;16.67;59.92;97192.22;5027602;28;20060;-46
2022/09/25 07:29:08;;;;;;;7.13;5.70;;;13.60;99.90;;;16.67;60.05;97186.00;5028367;28;20053;-48
2022/09/25 07:31:36;;;;;;;6.60;5.35;;;13.60;99.90;;;16.66;59.93;97192.44;5028722;28;20068;-48
2022/09/25 07:34:08;;;;;;;6.82;5.32;;;13.70;99.90;;;16.73;59.90;97186.00;5028503;28;20055;-48
2022/09/25 07:36:37;;;;;;;7.30;5.57;;;13.70;99.90;;;16.77;59.78;97182.88;5028126;28;20056;-47
2022/09/25 07:39:05;;;;;;;9.40;6.60;;;13.70;99.90;;;16.78;59.69;97187.22;5028056;28;20056;-48
2022/09/25 07:41:33;;;;;;;7.43;6.03;;;13.70;99.90;;;16.74;59.90;97192.19;5028071;28;20053;-49
2022/09/25 07:44:01;;;;;;;9.20;7.00;;;13.70;99.90;;;16.78;59.79;97196.09;5028475;28;20279;-49
2022/09/25 07:46:49;;;;;;;10.93;6.93;;;13.70;99.90;;;16.81;59.83;97200.22;5026977;28;20263;-50
2022/09/25 07:49:17;;;;;;;12.10;7.18;;;13.80;99.90;;;16.80;60.01;97203.97;5028055;28;20287;-46
2022/09/25 07:51:45;;;;;;;10.25;6.95;;;13.80;99.90;;;16.84;59.76;97203.34;5026303;28;20260;-49
2022/09/25 07:54:13;;;;;;;8.98;6.88;;;13.80;99.90;;;16.86;59.67;97201.28;5028034;28;20060;-44
2022/09/25 07:56:41;;;;;;;12.38;7.90;;;13.80;99.90;;;16.95;59.59;97191.13;5027428;28;20042;-48
2022/09/25 07:59:09;;;;;;;10.90;8.07;;;13.90;99.90;;;16.83;59.87;97190.97;5027021;28;20059;-48
2022/09/25 08:01:37;;;;;;;13.43;9.02;;;13.80;99.90;;;16.80;59.95;97187.84;5027591;28;20063;-46
2022/09/25 08:04:12;;;;;;;14.63;9.75;;;13.80;99.90;;;16.89;59.98;97194.66;5027492;28;20045;-47
2022/09/25 08:06:40;;;;;;;12.30;8.85;;;13.80;99.90;;;16.91;59.96;97198.78;5027941;28;20061;-47
2022/09/25 08:09:10;;;;;;;13.48;10.23;;;13.90;99.90;;;16.89;60.08;97198.16;5027086;28;20059;-49
2022/09/25 08:11:38;;;;;;;16.92;11.70;;;13.90;99.90;;;16.92;59.74;97202.28;5027360;28;20545;-46
2022/09/25 08:14:06;;;;;;;16.35;11.50;;;13.90;99.90;;;16.99;59.92;97203.09;5026528;28;20057;-49
2022/09/25 08:16:34;;;;;;;16.88;10.57;;;14.00;99.90;;;16.90;59.83;97197.16;5027524;28;20037;-48
2022/09/25 08:19:02;;;;;;;17.15;11.48;;;13.90;99.90;;;16.95;59.82;97195.69;5025702;28;20079;-48
2022/09/25 08:21:31;;;;;;;17.17;10.90;;;14.00;99.90;;;16.96;59.75;97197.31;5029096;28;20059;-50
2022/09/25 08:23:59;;;;;;;15.52;11.60;;;13.90;99.90;;;17.01;59.52;97200.19;5027887;28;20049;-49
2022/09/25 08:26:28;;;;;;;18.67;12.65;;;14.10;99.90;;;17.00;59.25;97204.75;5028012;28;20347;-47
2022/09/25 08:28:56;;;;;;;15.57;11.63;;;14.00;99.90;;;17.10;59.22;97194.38;5026991;28;20059;-48
2022/09/25 08:31:24;;;;;;;16.25;11.85;;;14.10;99.90;;;17.22;59.22;97196.38;5028293;28;20055;-47
2022/09/25 08:33:53;;;;;;;12.77;10.85;;;14.30;99.90;;;17.29;59.06;97194.47;5027802;28;20052;-47
2022/09/25 08:36:21;;;;;;;17.33;10.90;;;14.40;99.90;;;17.32;58.77;97194.06;5026350;28;20042;-47
2022/09/25 08:38:50;;;;;;;14.07;11.15;;;14.40;99.90;;;17.37;58.68;97194.25;5025372;28;20057;-47
2022/09/25 08:41:30;;;;;;;17.98;11.63;;;14.40;99.90;;;17.18;59.20;97195.16;5025794;28;20056;-49
2022/09/25 08:44:36;;;;;;;15.80;11.88;;;14.20;99.90;;;17.03;59.28;97190.06;5027217;28;20090;-48
2022/09/25 08:50:23;;;;;;;14.10;11.50;;;14.00;99.90;;;17.04;59.61;97187.16;5025595;28;20352;-47
2022/09/25 08:53:07;;;;;;;15.48;12.52;;;14.00;99.90;;;16.93;59.65;97183.25;5026481;28;20049;-46
2022/09/25 08:58:35;;;;;;;16.20;11.43;;;14.20;99.90;;;17.23;59.30;97181.88;5026668;28;20046;-45
2022/09/25 09:01:15;;;;;;;16.35;12.50;;;14.10;99.90;;;17.15;59.26;97187.53;5026279;28;20060;-47
2022/09/25 09:04:17;;;;;;;16.60;11.95;;;14.20;99.90;;;17.13;59.51;97182.34;5025945;28;20054;-45
2022/09/25 09:06:52;;;;;;;15.63;11.20;;;14.30;99.90;;;17.09;58.97;97183.81;5026827;28;20356;-49
2022/09/25 09:10:20;;;;;;;14.65;11.30;;;14.20;99.90;;;17.31;59.09;97181.63;5025954;28;20049;-48
2022/09/25 09:13:33;;;;;;;17.75;11.50;;;14.30;99.90;;;17.31;59.12;97179.78;5008665;28;20073;-47
2022/09/25 09:16:28;;;;;;;13.15;10.40;;;14.30;99.90;;;17.46;58.84;97192.94;5026338;28;20041;-48
2022/09/25 09:18:59;;;;;;;15.57;10.40;;;14.40;99.90;;;17.62;58.72;97188.06;5018607;28;20064;-47
2022/09/25 09:21:37;;;;;;;14.25;10.63;;;14.60;99.90;;;17.66;58.15;97194.66;5025675;28;20057;-45
2022/09/25 09:24:38;;;;;;;16.77;11.30;;;14.70;99.90;;;17.75;58.17;97198.75;5026415;28;20079;-46
2022/09/25 09:27:27;;;;;;;15.35;11.95;;;14.80;99.90;;;17.80;57.76;97190.84;5026233;28;20231;-47
2022/09/25 09:30:33;;;;;;;16.38;11.95;;;14.80;99.90;;;17.32;57.32;97189.50;5025865;28;20060;-47
2022/09/25 09:33:46;;;;;;;17.67;11.40;;;14.50;99.90;;;17.71;57.78;97186.78;5003662;28;20049;-46
2022/09/25 09:36:43;;;;;;;14.55;12.32;;;14.70;99.90;;;17.80;57.53;97188.16;5026084;28;20049;-48
2022/09/25 09:39:57;;;;;;;18.92;12.45;;;14.80;99.90;;;18.04;57.55;97180.34;5025546;28;20054;-47
2022/09/25 09:42:50;;;;;;;16.75;12.02;;;15.10;99.90;;;18.07;57.15;97178.03;5025862;28;20053;-48
2022/09/25 09:45:31;;;;;;;14.68;10.35;;;15.20;99.90;;;18.21;56.56;97177.94;5025437;28;20064;-47
2022/09/25 09:48:10;;;;;;;14.90;10.95;;;15.30;99.90;;;18.13;56.71;97178.22;5025497;28;20059;-46
2022/09/25 09:50:52;;;;;;;17.13;11.60;;;15.20;99.90;;;18.14;56.74;97183.34;5026395;28;20053;-46
2022/09/25 09:53:42;;;;;;;16.05;12.73;;;15.10;99.90;;;17.73;57.50;97187.38;5026097;28;20053;-46
2022/09/25 09:56:21;;;;;;;16.85;11.73;;;14.90;99.90;;;17.53;58.48;97187.53;5026529;28;20067;-46
2022/09/25 09:59:16;;;;;;;18.95;12.63;;;14.70;99.90;;;17.67;58.12;97188.25;5025500;28;20049;-46
2022/09/25 10:02:03;;;;;;;21.52;13.50;;;14.70;99.90;;;17.80;57.90;97192.72;5025258;28;20042;-46
2022/09/25 10:04:37;;;;;;;28.58;18.63;;;14.90;99.90;;;17.75;57.83;97187.97;5025206;28;20064;-45
2022/09/25 10:07:15;;;;;;;21.95;15.13;;;14.70;99.90;;;17.67;57.75;97193.63;5023077;28;20268;-46
2022/09/25 10:09:43;;;;;;;24.30;15.38;;;14.50;99.90;;;17.68;57.66;97198.81;5033330;28;20370;-50
2022/09/25 10:12:32;;;;;;;23.88;15.45;;;14.50;99.90;;;17.48;57.95;97188.16;5035946;28;20236;-48
2022/09/25 10:15:06;;;;;;;20.60;15.73;;;14.40;99.90;;;17.45;58.47;97183.22;5035369;28;20045;-47
2022/09/25 10:17:36;;;;;;;20.75;15.15;;;14.40;99.90;;;17.44;58.31;97186.94;5033848;28;20053;-47
2022/09/25 10:20:22;;;;;;;20.88;15.20;;;14.40;99.90;;;17.32;58.36;97183.28;5033848;28;20221;-46
2022/09/25 10:22:55;;;;;;;18.92;14.65;;;14.30;99.90;;;17.29;58.69;97183.72;5035237;28;20045;-46
2022/09/25 10:25:38;;;;;;;20.27;13.98;;;14.30;99.90;;;17.31;58.49;97187.84;5038244;28;20243;-46
2022/09/25 10:28:24;;;;;;;19.45;14.38;;;14.20;99.90;;;17.30;58.69;97180.81;5034394;28;20049;-47
2022/09/25 10:30:54;;;;;;;21.48;13.65;;;14.30;99.90;;;16.97;59.70;97174.78;5033273;28;20049;-51
2022/09/25 10:33:29;;;;;;;17.85;13.77;;;14.10;99.90;;;17.25;59.31;97179.81;5028977;28;20324;-46
2022/09/25 10:35:57;;;;;;;19.60;14.90;;;14.20;99.90;;;17.30;59.07;97178.13;5024778;28;20057;-49
2022/09/25 10:38:48;;;;;;;18.20;13.57;;;14.40;99.90;;;17.48;58.84;97181.94;5024802;28;20060;-50
2022/09/25 10:41:25;;;;;;;18.13;14.27;;;14.60;99.90;;;17.71;58.53;97176.00;5024721;28;20052;-45
2022/09/25 10:43:59;;;;;;;18.88;14.57;;;14.70;99.90;;;17.74;58.52;97182.81;5028738;28;20041;-45
2022/09/25 10:52:09;;;;;;;20.67;14.18;;;14.90;99.90;;;17.77;58.25;97177.00;5029164;28;20050;-46
2022/09/25 10:54:37;;;;;;;18.70;15.23;;;14.90;99.90;;;17.83;57.39;97176.94;5030560;28;20055;-46
2022/09/25 10:57:37;;;;;;;17.45;13.20;;;14.90;99.90;;;17.98;57.39;97182.03;5028729;28;20079;-46
2022/09/25 11:00:21;;;;;;;21.88;14.32;;;15.00;99.90;;;17.60;57.08;97176.69;5029171;28;20244;-45
2022/09/25 11:03:03;;;;;;;20.10;14.07;;;14.90;99.90;;;17.70;56.84;97175.19;5027446;28;20049;-45
2022/09/25 11:05:37;;;;;;;21.42;14.75;;;15.00;99.90;;;17.52;56.43;97175.94;5027356;28;20053;-48
2022/09/25 11:08:06;;;;;;;18.15;13.13;;;15.00;99.90;;;17.49;55.83;97175.53;5028772;28;20287;-48